DLH6YJ EHAM-EDDB
Flight info
| Callsign | DLH6YJ |
|---|---|
| Flight time | N/A |
| Altitude | 35000 |
| Route | ARNEM L620 SUVOX Z718 OSNAD DCT BATEL T207 OGBER OGBER1R |
| Aircraft | A21N/M-SDE2E3FGHIRWXY/LB1 |
Departure
| Time | 2026-04-28 18:22 |
|---|---|
| Airport | Amsterdam Airport Schiphol (EHAM) |
Arrival
| Time | N/A |
|---|---|
| Airport | Berlin Brandenburg Airport (EDDB) |
| Time | Latitude | Longitude | Altitude | Speed | Heading |
|---|---|---|---|---|---|
| 2026-04-28 17:43 | 52.30929 | 4.76878 | 8 ft | 0 kts | 136° |
| 2026-04-28 17:58 | 52.30929 | 4.76879 | 8 ft | 0 kts | 136° |
| 2026-04-28 17:59 | 52.30931 | 4.76874 | 8 ft | 1 kts | 152° |
| 2026-04-28 17:59 | 52.30945 | 4.76867 | 8 ft | 2 kts | 161° |
| 2026-04-28 17:59 | 52.30959 | 4.76857 | 8 ft | 2 kts | 156° |
| 2026-04-28 17:59 | 52.30973 | 4.76847 | 8 ft | 2 kts | 159° |
| 2026-04-28 18:00 | 52.30987 | 4.76838 | 8 ft | 2 kts | 157° |
| 2026-04-28 18:00 | 52.31001 | 4.76828 | 9 ft | 2 kts | 158° |
| 2026-04-28 18:00 | 52.31015 | 4.76819 | 8 ft | 2 kts | 158° |
| 2026-04-28 18:00 | 52.31023 | 4.76814 | 8 ft | 1 kts | 159° |
| 2026-04-28 18:01 | 52.31028 | 4.76806 | 8 ft | 1 kts | 92° |
| 2026-04-28 18:01 | 52.31026 | 4.76796 | 8 ft | 0 kts | 42° |
| 2026-04-28 18:01 | 52.31021 | 4.76790 | 8 ft | 1 kts | 37° |
| 2026-04-28 18:01 | 52.31020 | 4.76789 | 8 ft | 0 kts | 38° |
| 2026-04-28 18:02 | 52.31021 | 4.76791 | 8 ft | 0 kts | 38° |
| 2026-04-28 18:03 | 52.31027 | 4.76798 | 8 ft | 1 kts | 38° |
| 2026-04-28 18:03 | 52.31037 | 4.76811 | 8 ft | 2 kts | 38° |
| 2026-04-28 18:03 | 52.31043 | 4.76817 | 8 ft | 1 kts | 38° |
| 2026-04-28 18:03 | 52.31064 | 4.76845 | 9 ft | 6 kts | 38° |
| 2026-04-28 18:04 | 52.31112 | 4.76901 | 10 ft | 10 kts | 35° |
| 2026-04-28 18:04 | 52.31202 | 4.76998 | 8 ft | 21 kts | 33° |
| 2026-04-28 18:04 | 52.31347 | 4.77151 | 8 ft | 25 kts | 32° |
| 2026-04-28 18:04 | 52.31519 | 4.77196 | 2 ft | 24 kts | 347° |
| 2026-04-28 18:05 | 52.31567 | 4.76972 | 0 ft | 22 kts | 267° |
| 2026-04-28 18:05 | 52.31561 | 4.76797 | -1 ft | 23 kts | 264° |
| 2026-04-28 18:05 | 52.31547 | 4.76451 | -2 ft | 25 kts | 266° |
| 2026-04-28 18:05 | 52.31536 | 4.76132 | -2 ft | 30 kts | 267° |
| 2026-04-28 18:06 | 52.31527 | 4.75771 | 0 ft | 33 kts | 268° |
| 2026-04-28 18:06 | 52.31511 | 4.75373 | 0 ft | 36 kts | 266° |
| 2026-04-28 18:06 | 52.31498 | 4.74971 | -4 ft | 35 kts | 268° |
| 2026-04-28 18:06 | 52.31484 | 4.74578 | -7 ft | 33 kts | 265° |
| 2026-04-28 18:07 | 52.31513 | 4.74312 | -6 ft | 16 kts | 331° |
| 2026-04-28 18:07 | 52.31611 | 4.74299 | -7 ft | 12 kts | 4° |
| 2026-04-28 18:07 | 52.31700 | 4.74308 | -7 ft | 12 kts | 4° |
| 2026-04-28 18:07 | 52.31793 | 4.74317 | -7 ft | 14 kts | 2° |
| 2026-04-28 18:08 | 52.31899 | 4.74326 | -7 ft | 16 kts | 4° |
| 2026-04-28 18:08 | 52.32018 | 4.74295 | -7 ft | 18 kts | 305° |
| 2026-04-28 18:08 | 52.32037 | 4.74067 | -7 ft | 22 kts | 273° |
| 2026-04-28 18:08 | 52.32046 | 4.73802 | -4 ft | 24 kts | 273° |
| 2026-04-28 18:09 | 52.32056 | 4.73530 | -4 ft | 22 kts | 274° |
| 2026-04-28 18:09 | 52.32121 | 4.73315 | -4 ft | 21 kts | 319° |
| 2026-04-28 18:09 | 52.32232 | 4.73157 | -7 ft | 16 kts | 317° |
| 2026-04-28 18:09 | 52.32314 | 4.73041 | -7 ft | 15 kts | 320° |
| 2026-04-28 18:10 | 52.32392 | 4.72931 | -7 ft | 14 kts | 320° |
| 2026-04-28 18:10 | 52.32468 | 4.72822 | -6 ft | 14 kts | 318° |
| 2026-04-28 18:10 | 52.32541 | 4.72717 | -5 ft | 13 kts | 319° |
| 2026-04-28 18:10 | 52.32610 | 4.72619 | -4 ft | 13 kts | 319° |
| 2026-04-28 18:11 | 52.32682 | 4.72511 | -4 ft | 14 kts | 316° |
| 2026-04-28 18:11 | 52.32754 | 4.72383 | -3 ft | 16 kts | 311° |
| 2026-04-28 18:11 | 52.32832 | 4.72234 | -4 ft | 18 kts | 311° |
| 2026-04-28 18:11 | 52.32925 | 4.72061 | -4 ft | 21 kts | 311° |
| 2026-04-28 18:12 | 52.33024 | 4.71877 | -7 ft | 21 kts | 311° |
| 2026-04-28 18:12 | 52.33119 | 4.71694 | -7 ft | 20 kts | 309° |
| 2026-04-28 18:12 | 52.33128 | 4.71491 | -7 ft | 18 kts | 229° |
| 2026-04-28 18:12 | 52.33037 | 4.71357 | -7 ft | 17 kts | 223° |
| 2026-04-28 18:13 | 52.32957 | 4.71239 | -7 ft | 9 kts | 222° |
| 2026-04-28 18:13 | 52.32939 | 4.71212 | -7 ft | 0 kts | 222° |
| 2026-04-28 18:14 | 52.32938 | 4.71211 | -7 ft | 1 kts | 222° |
| 2026-04-28 18:14 | 52.32922 | 4.71187 | -7 ft | 5 kts | 222° |
| 2026-04-28 18:15 | 52.32895 | 4.71146 | -7 ft | 3 kts | 223° |
| 2026-04-28 18:15 | 52.32888 | 4.71136 | -7 ft | 0 kts | 223° |
| 2026-04-28 18:16 | 52.32884 | 4.71128 | -7 ft | 2 kts | 228° |
| 2026-04-28 18:16 | 52.32869 | 4.71094 | -7 ft | 5 kts | 241° |
| 2026-04-28 18:16 | 52.32864 | 4.71044 | -7 ft | 0 kts | 269° |
| 2026-04-28 18:18 | 52.32864 | 4.71040 | -7 ft | 1 kts | 269° |
| 2026-04-28 18:18 | 52.32864 | 4.71020 | -7 ft | 3 kts | 271° |
| 2026-04-28 18:19 | 52.32878 | 4.70932 | -7 ft | 8 kts | 311° |
| 2026-04-28 18:19 | 52.32932 | 4.70898 | -7 ft | 8 kts | 359° |
| 2026-04-28 18:19 | 52.32975 | 4.70896 | -7 ft | 0 kts | 1° |
| 2026-04-28 18:20 | 52.32977 | 4.70896 | -7 ft | 0 kts | 2° |
| 2026-04-28 18:21 | 52.32982 | 4.70896 | -7 ft | 7 kts | 2° |
| 2026-04-28 18:21 | 52.33307 | 4.70924 | -7 ft | 83 kts | 6° |
| 2026-04-28 18:22 | 52.34089 | 4.71007 | -7 ft | 142 kts | 4° |
| 2026-04-28 18:22 | 52.35222 | 4.71099 | 232 ft | 171 kts | 6° |
| 2026-04-28 18:22 | 52.36350 | 4.71159 | 970 ft | 164 kts | 10° |
| 2026-04-28 18:22 | 52.37503 | 4.71236 | 1626 ft | 168 kts | 12° |
| 2026-04-28 18:23 | 52.38649 | 4.71384 | 2115 ft | 170 kts | 15° |
| 2026-04-28 18:23 | 52.39872 | 4.71551 | 2419 ft | 185 kts | 13° |
| 2026-04-28 18:23 | 52.41209 | 4.71725 | 2731 ft | 199 kts | 15° |
| 2026-04-28 18:23 | 52.42564 | 4.72329 | 3004 ft | 210 kts | 30° |
| 2026-04-28 18:24 | 52.43921 | 4.73475 | 3314 ft | 227 kts | 35° |
| 2026-04-28 18:24 | 52.44865 | 4.74343 | 3567 ft | 238 kts | 35° |
| 2026-04-28 18:24 | 52.46788 | 4.76192 | 4385 ft | 245 kts | 41° |
| 2026-04-28 18:24 | 52.47836 | 4.78292 | 5105 ft | 242 kts | 67° |
| 2026-04-28 18:25 | 52.48215 | 4.80989 | 5772 ft | 245 kts | 85° |
| 2026-04-28 18:25 | 52.48350 | 4.83786 | 6123 ft | 249 kts | 84° |
| 2026-04-28 18:25 | 52.48495 | 4.86642 | 6264 ft | 251 kts | 84° |
| 2026-04-28 18:26 | 52.47858 | 4.92161 | 6368 ft | 264 kts | 124° |
| 2026-04-28 18:26 | 52.46488 | 4.94180 | 7046 ft | 272 kts | 141° |
| 2026-04-28 18:26 | 52.44939 | 4.95950 | 7853 ft | 271 kts | 141° |
| 2026-04-28 18:26 | 52.43409 | 4.97732 | 8535 ft | 275 kts | 141° |
| 2026-04-28 18:27 | 52.41855 | 4.99544 | 9219 ft | 278 kts | 141° |
| 2026-04-28 18:27 | 52.40283 | 5.01369 | 9871 ft | 282 kts | 141° |
| 2026-04-28 18:27 | 52.38680 | 5.03224 | 10494 ft | 285 kts | 141° |
| 2026-04-28 18:27 | 52.37017 | 5.05151 | 10882 ft | 298 kts | 141° |
| 2026-04-28 18:28 | 52.35294 | 5.07161 | 11200 ft | 313 kts | 140° |
| 2026-04-28 18:28 | 52.33727 | 5.09683 | 11452 ft | 324 kts | 125° |
| 2026-04-28 18:28 | 52.32583 | 5.12880 | 11744 ft | 334 kts | 111° |
| 2026-04-28 18:28 | 52.31716 | 5.16445 | 12239 ft | 340 kts | 109° |
| 2026-04-28 18:29 | 52.30877 | 5.20029 | 12814 ft | 344 kts | 109° |
| 2026-04-28 18:29 | 52.30017 | 5.23702 | 13397 ft | 347 kts | 109° |
| 2026-04-28 18:29 | 52.29147 | 5.27395 | 13921 ft | 351 kts | 109° |
| 2026-04-28 18:29 | 52.28269 | 5.31095 | 14468 ft | 354 kts | 109° |
| 2026-04-28 18:30 | 52.27386 | 5.34800 | 15013 ft | 357 kts | 109° |
| 2026-04-28 18:30 | 52.27087 | 5.36052 | 15191 ft | 358 kts | 109° |
| 2026-04-28 18:30 | 52.25565 | 5.42408 | 16050 ft | 363 kts | 109° |
| 2026-04-28 18:30 | 52.24649 | 5.46212 | 16535 ft | 366 kts | 109° |
| 2026-04-28 18:31 | 52.23729 | 5.50065 | 17024 ft | 368 kts | 107° |
| 2026-04-28 18:31 | 52.23229 | 5.54120 | 17441 ft | 368 kts | 90° |
| 2026-04-28 18:31 | 52.23239 | 5.58309 | 17933 ft | 369 kts | 86° |
| 2026-04-28 18:31 | 52.23323 | 5.62473 | 18406 ft | 372 kts | 86° |
| 2026-04-28 18:32 | 52.23392 | 5.66727 | 18833 ft | 375 kts | 87° |
| 2026-04-28 18:32 | 52.23434 | 5.70963 | 19281 ft | 377 kts | 88° |
| 2026-04-28 18:32 | 52.23455 | 5.75258 | 19723 ft | 379 kts | 88° |
| 2026-04-28 18:32 | 52.23462 | 5.79530 | 20150 ft | 382 kts | 88° |
| 2026-04-28 18:33 | 52.23459 | 5.83863 | 20554 ft | 385 kts | 89° |
| 2026-04-28 18:33 | 52.23448 | 5.88210 | 20945 ft | 387 kts | 89° |
| 2026-04-28 18:33 | 52.23434 | 5.92605 | 21358 ft | 389 kts | 89° |
| 2026-04-28 18:33 | 52.23415 | 5.96988 | 21740 ft | 391 kts | 89° |
| 2026-04-28 18:34 | 52.23393 | 6.01452 | 22133 ft | 393 kts | 89° |
| 2026-04-28 18:34 | 52.23369 | 6.05884 | 22501 ft | 396 kts | 89° |
| 2026-04-28 18:34 | 52.23343 | 6.10383 | 22866 ft | 398 kts | 89° |
| 2026-04-28 18:34 | 52.23315 | 6.14872 | 23236 ft | 399 kts | 89° |
| 2026-04-28 18:35 | 52.23286 | 6.19405 | 23590 ft | 401 kts | 89° |
| 2026-04-28 18:35 | 52.23254 | 6.23922 | 23937 ft | 403 kts | 89° |
| 2026-04-28 18:35 | 52.23219 | 6.28497 | 24286 ft | 404 kts | 89° |
| 2026-04-28 18:35 | 52.23182 | 6.33067 | 24607 ft | 406 kts | 89° |
| 2026-04-28 18:36 | 52.23144 | 6.37634 | 24921 ft | 408 kts | 89° |
| 2026-04-28 18:36 | 52.23104 | 6.42269 | 25215 ft | 410 kts | 88° |
| 2026-04-28 18:36 | 52.23062 | 6.46886 | 25529 ft | 411 kts | 88° |
| 2026-04-28 18:36 | 52.23018 | 6.51598 | 25819 ft | 413 kts | 88° |
| 2026-04-28 18:37 | 52.22971 | 6.56268 | 26118 ft | 415 kts | 88° |
| 2026-04-28 18:37 | 52.22924 | 6.60936 | 26410 ft | 416 kts | 88° |
| 2026-04-28 18:37 | 52.22873 | 6.65701 | 26681 ft | 418 kts | 89° |
| 2026-04-28 18:37 | 52.22821 | 6.70396 | 26950 ft | 420 kts | 89° |
| 2026-04-28 18:38 | 52.22767 | 6.75156 | 27203 ft | 421 kts | 89° |
| 2026-04-28 18:38 | 52.22711 | 6.79929 | 27453 ft | 423 kts | 89° |
| 2026-04-28 18:38 | 52.22651 | 6.84725 | 27751 ft | 423 kts | 89° |
| 2026-04-28 18:38 | 52.22591 | 6.89476 | 28027 ft | 424 kts | 89° |
| 2026-04-28 18:39 | 52.22528 | 6.94315 | 28244 ft | 425 kts | 88° |
| 2026-04-28 18:39 | 52.22400 | 7.03906 | 28252 ft | 427 kts | 89° |
| 2026-04-28 18:40 | 52.22261 | 7.13522 | 28260 ft | 427 kts | 88° |
| 2026-04-28 18:40 | 52.22113 | 7.23210 | 28261 ft | 428 kts | 88° |
| 2026-04-28 18:41 | 52.21958 | 7.32906 | 28260 ft | 429 kts | 88° |
| 2026-04-28 18:41 | 52.21794 | 7.42564 | 28263 ft | 429 kts | 89° |
| 2026-04-28 18:42 | 52.21621 | 7.52286 | 28536 ft | 433 kts | 88° |
| 2026-04-28 18:42 | 52.21531 | 7.57189 | 28833 ft | 433 kts | 88° |
| 2026-04-28 18:42 | 52.21439 | 7.62088 | 29038 ft | 435 kts | 88° |
| 2026-04-28 18:42 | 52.21345 | 7.67016 | 29252 ft | 437 kts | 89° |
| 2026-04-28 18:43 | 52.21247 | 7.71927 | 29638 ft | 434 kts | 89° |
| 2026-04-28 18:43 | 52.21148 | 7.76818 | 30130 ft | 430 kts | 89° |
| 2026-04-28 18:43 | 52.21047 | 7.81679 | 30529 ft | 427 kts | 89° |
| 2026-04-28 18:43 | 52.20949 | 7.86427 | 30878 ft | 426 kts | 89° |
| 2026-04-28 18:44 | 52.20847 | 7.91255 | 31149 ft | 425 kts | 89° |
| 2026-04-28 18:44 | 52.20639 | 8.00820 | 31697 ft | 425 kts | 89° |
| 2026-04-28 18:44 | 52.20532 | 8.05604 | 31953 ft | 425 kts | 89° |
| 2026-04-28 18:45 | 52.20419 | 8.10414 | 32227 ft | 424 kts | 89° |
| 2026-04-28 18:45 | 52.20306 | 8.15215 | 32501 ft | 424 kts | 89° |
| 2026-04-28 18:45 | 52.20217 | 8.19941 | 32755 ft | 423 kts | 87° |
| 2026-04-28 18:45 | 52.20274 | 8.24727 | 33017 ft | 421 kts | 84° |
| 2026-04-28 18:46 | 52.20490 | 8.29475 | 33267 ft | 420 kts | 81° |
| 2026-04-28 18:46 | 52.20860 | 8.34140 | 33508 ft | 418 kts | 78° |
| 2026-04-28 18:46 | 52.21384 | 8.38748 | 33753 ft | 417 kts | 75° |
| 2026-04-28 18:46 | 52.21999 | 8.43375 | 33999 ft | 416 kts | 74° |
| 2026-04-28 18:47 | 52.22616 | 8.47951 | 34242 ft | 415 kts | 74° |
| 2026-04-28 18:47 | 52.23231 | 8.52515 | 34476 ft | 415 kts | 74° |
| 2026-04-28 18:47 | 52.23850 | 8.57118 | 34699 ft | 414 kts | 74° |
| 2026-04-28 18:47 | 52.24461 | 8.61678 | 34908 ft | 414 kts | 74° |
| 2026-04-28 18:48 | 52.25070 | 8.66245 | 35090 ft | 414 kts | 75° |
| 2026-04-28 18:48 | 52.25683 | 8.70863 | 35250 ft | 415 kts | 75° |
| 2026-04-28 18:48 | 52.26898 | 8.80072 | 34974 ft | 417 kts | 75° |
| 2026-04-28 18:49 | 52.27497 | 8.84645 | 34762 ft | 416 kts | 75° |
| 2026-04-28 18:49 | 52.27901 | 8.87729 | 34609 ft | 415 kts | 75° |
| 2026-04-28 18:49 | 52.28697 | 8.93824 | 34303 ft | 416 kts | 75° |
| 2026-04-28 18:49 | 52.29300 | 8.98464 | 34065 ft | 416 kts | 75° |
| 2026-04-28 18:50 | 52.29894 | 9.03048 | 33831 ft | 417 kts | 75° |
| 2026-04-28 18:50 | 52.30497 | 9.07712 | 33587 ft | 418 kts | 75° |
| 2026-04-28 18:50 | 52.31095 | 9.12357 | 33348 ft | 419 kts | 75° |
| 2026-04-28 18:50 | 52.31683 | 9.16930 | 33101 ft | 415 kts | 75° |
| 2026-04-28 18:51 | 52.32265 | 9.21513 | 32931 ft | 403 kts | 74° |
| 2026-04-28 18:51 | 52.32820 | 9.25891 | 32713 ft | 394 kts | 74° |
| 2026-04-28 18:51 | 52.33371 | 9.30241 | 32375 ft | 389 kts | 74° |
| 2026-04-28 18:51 | 52.33919 | 9.34560 | 31938 ft | 386 kts | 74° |
| 2026-04-28 18:52 | 52.34458 | 9.38823 | 31479 ft | 384 kts | 74° |
| 2026-04-28 18:52 | 52.34991 | 9.43048 | 31039 ft | 382 kts | 74° |
| 2026-04-28 18:52 | 52.35521 | 9.47265 | 30574 ft | 380 kts | 74° |
| 2026-04-28 18:52 | 52.36047 | 9.51466 | 30079 ft | 378 kts | 74° |
| 2026-04-28 18:53 | 52.36567 | 9.55635 | 29618 ft | 376 kts | 74° |
| 2026-04-28 18:53 | 52.37082 | 9.59782 | 29153 ft | 373 kts | 74° |
| 2026-04-28 18:53 | 52.37600 | 9.63955 | 28665 ft | 372 kts | 74° |
| 2026-04-28 18:53 | 52.38108 | 9.68065 | 28204 ft | 370 kts | 75° |
| 2026-04-28 18:54 | 52.38611 | 9.72153 | 27732 ft | 368 kts | 75° |
| 2026-04-28 18:54 | 52.39113 | 9.76238 | 27271 ft | 366 kts | 75° |
| 2026-04-28 18:54 | 52.39610 | 9.80291 | 26797 ft | 364 kts | 75° |
| 2026-04-28 18:54 | 52.40101 | 9.84323 | 26328 ft | 363 kts | 75° |
| 2026-04-28 18:55 | 52.40595 | 9.88384 | 25866 ft | 361 kts | 75° |
| 2026-04-28 18:55 | 52.40916 | 9.91031 | 25580 ft | 359 kts | 75° |
| 2026-04-28 18:55 | 52.41560 | 9.96350 | 25317 ft | 357 kts | 75° |
| 2026-04-28 18:55 | 52.42041 | 10.00325 | 25317 ft | 359 kts | 75° |
| 2026-04-28 18:56 | 52.42522 | 10.04328 | 25317 ft | 360 kts | 75° |
| 2026-04-28 18:56 | 52.43002 | 10.08335 | 25321 ft | 359 kts | 75° |
| 2026-04-28 18:56 | 52.43479 | 10.12318 | 25316 ft | 359 kts | 75° |
| 2026-04-28 18:56 | 52.43961 | 10.16363 | 25316 ft | 359 kts | 75° |
| 2026-04-28 18:57 | 52.44436 | 10.20360 | 25317 ft | 360 kts | 75° |
| 2026-04-28 18:57 | 52.44913 | 10.24392 | 25315 ft | 359 kts | 75° |
| 2026-04-28 18:57 | 52.45387 | 10.28415 | 25315 ft | 359 kts | 75° |
| 2026-04-28 18:57 | 52.45855 | 10.32391 | 25316 ft | 360 kts | 75° |
| 2026-04-28 18:58 | 52.46326 | 10.36406 | 25314 ft | 360 kts | 75° |
| 2026-04-28 18:58 | 52.46786 | 10.40340 | 25304 ft | 347 kts | 75° |
| 2026-04-28 18:58 | 52.47230 | 10.44191 | 25306 ft | 338 kts | 75° |
| 2026-04-28 18:58 | 52.47666 | 10.47937 | 25313 ft | 337 kts | 75° |
| 2026-04-28 18:59 | 52.48105 | 10.51703 | 25316 ft | 337 kts | 74° |
| 2026-04-28 18:59 | 52.48541 | 10.55459 | 25316 ft | 337 kts | 74° |
| 2026-04-28 18:59 | 52.48974 | 10.59211 | 25321 ft | 336 kts | 74° |
| 2026-04-28 18:59 | 52.49411 | 10.63013 | 25320 ft | 336 kts | 75° |
| 2026-04-28 19:00 | 52.49842 | 10.66765 | 25318 ft | 337 kts | 75° |
| 2026-04-28 19:00 | 52.50272 | 10.70529 | 25316 ft | 338 kts | 75° |
| 2026-04-28 19:00 | 52.50701 | 10.74293 | 25314 ft | 337 kts | 75° |
| 2026-04-28 19:00 | 52.51132 | 10.78102 | 25318 ft | 337 kts | 75° |
| 2026-04-28 19:01 | 52.51557 | 10.81866 | 25319 ft | 337 kts | 75° |
| 2026-04-28 19:01 | 52.51981 | 10.85617 | 25316 ft | 337 kts | 75° |
| 2026-04-28 19:01 | 52.52407 | 10.89401 | 25317 ft | 337 kts | 75° |
| 2026-04-28 19:01 | 52.52828 | 10.93154 | 25317 ft | 337 kts | 75° |
| 2026-04-28 19:02 | 52.53251 | 10.96939 | 25315 ft | 337 kts | 75° |
| 2026-04-28 19:02 | 52.53666 | 11.00677 | 25317 ft | 337 kts | 75° |
| 2026-04-28 19:02 | 52.54087 | 11.04483 | 25315 ft | 337 kts | 76° |
| 2026-04-28 19:02 | 52.54442 | 11.08291 | 25314 ft | 338 kts | 78° |
| 2026-04-28 19:03 | 52.54696 | 11.12131 | 25315 ft | 339 kts | 81° |
| 2026-04-28 19:03 | 52.54847 | 11.15977 | 25315 ft | 340 kts | 83° |
| 2026-04-28 19:03 | 52.54941 | 11.19856 | 25315 ft | 340 kts | 83° |
| 2026-04-28 19:03 | 52.55028 | 11.23728 | 25314 ft | 340 kts | 83° |
| 2026-04-28 19:04 | 52.55114 | 11.27568 | 25313 ft | 340 kts | 83° |
| 2026-04-28 19:04 | 52.55199 | 11.31449 | 25312 ft | 340 kts | 83° |
| 2026-04-28 19:04 | 52.55284 | 11.35327 | 25309 ft | 341 kts | 83° |
| 2026-04-28 19:04 | 52.55369 | 11.39222 | 25306 ft | 341 kts | 83° |
| 2026-04-28 19:05 | 52.55452 | 11.43079 | 25305 ft | 342 kts | 83° |
| 2026-04-28 19:05 | 52.55535 | 11.46959 | 25305 ft | 341 kts | 83° |
| 2026-04-28 19:05 | 52.55617 | 11.50870 | 25306 ft | 341 kts | 83° |
| 2026-04-28 19:05 | 52.55696 | 11.54744 | 25306 ft | 341 kts | 83° |
| 2026-04-28 19:06 | 52.55776 | 11.58632 | 25308 ft | 340 kts | 83° |
| 2026-04-28 19:06 | 52.55827 | 11.61167 | 25309 ft | 340 kts | 83° |
| 2026-04-28 19:06 | 52.56331 | 11.66208 | 25201 ft | 327 kts | 63° |
| 2026-04-28 19:06 | 52.57319 | 11.69473 | 24859 ft | 321 kts | 56° |
| 2026-04-28 19:07 | 52.58443 | 11.72671 | 24354 ft | 322 kts | 55° |
| 2026-04-28 19:07 | 52.59569 | 11.75794 | 23928 ft | 320 kts | 55° |
| 2026-04-28 19:07 | 52.60699 | 11.78914 | 23549 ft | 317 kts | 55° |
| 2026-04-28 19:07 | 52.61813 | 11.81998 | 23190 ft | 314 kts | 54° |
| 2026-04-28 19:08 | 52.62926 | 11.85086 | 22813 ft | 311 kts | 54° |
| 2026-04-28 19:08 | 52.64017 | 11.88114 | 22430 ft | 308 kts | 54° |
| 2026-04-28 19:08 | 52.65115 | 11.91151 | 22037 ft | 306 kts | 54° |
| 2026-04-28 19:08 | 52.66185 | 11.94114 | 21675 ft | 303 kts | 54° |
| 2026-04-28 19:09 | 52.67260 | 11.97099 | 21311 ft | 300 kts | 54° |
| 2026-04-28 19:09 | 52.68308 | 12.00019 | 20951 ft | 297 kts | 54° |
| 2026-04-28 19:09 | 52.69356 | 12.02933 | 20602 ft | 294 kts | 53° |
| 2026-04-28 19:09 | 52.70623 | 12.05442 | 20233 ft | 285 kts | 39° |
| 2026-04-28 19:10 | 52.72117 | 12.07575 | 19880 ft | 281 kts | 36° |
| 2026-04-28 19:10 | 52.73625 | 12.09589 | 19501 ft | 278 kts | 35° |